TimeEDT,TemperatureF,Dew PointF,Humidity,Sea Level PressureIn,VisibilityMPH,Wind Direction,Wind SpeedMPH,Gust SpeedMPH,PrecipitationIn,Events,Conditions,WindDirDegrees,DateUTC
12:11 AM,69.8,66.2,88,30.09,10.0,SW,3.5,-,N/A,,Overcast,220,2013-08-07 04:11:00
12:54 AM,71.1,66.0,84,30.06,10.0,SW,4.6,-,N/A,,Overcast,230,2013-08-07 04:54:00
1:36 AM,69.8,66.2,88,30.08,10.0,SW,4.6,-,N/A,,Overcast,230,2013-08-07 05:36:00
1:47 AM,69.8,66.2,88,30.08,10.0,SW,4.6,-,N/A,,Overcast,230,2013-08-07 05:47:00
1:54 AM,70.0,66.0,87,30.05,10.0,SW,3.5,-,N/A,,Overcast,230,2013-08-07 05:54:00
2:54 AM,71.1,66.0,84,30.04,10.0,South,3.5,-,N/A,,Overcast,170,2013-08-07 06:54:00
3:54 AM,70.0,66.0,87,30.05,10.0,South,4.6,-,0.00,,Overcast,180,2013-08-07 07:54:00
4:54 AM,70.0,66.9,90,30.05,9.0,South,4.6,-,0.00,,Overcast,190,2013-08-07 08:54:00
5:54 AM,70.0,66.9,90,30.05,9.0,South,5.8,-,N/A,,Overcast,190,2013-08-07 09:54:00
6:54 AM,70.0,66.9,90,30.06,8.0,South,4.6,-,N/A,,Mostly Cloudy,190,2013-08-07 10:54:00
7:13 AM,69.8,66.2,88,30.09,7.0,South,5.8,-,N/A,,Overcast,180,2013-08-07 11:13:00
7:54 AM,71.1,66.9,87,30.07,9.0,South,6.9,-,N/A,,Mostly Cloudy,190,2013-08-07 11:54:00
8:54 AM,72.0,68.0,87,30.08,10.0,South,6.9,-,N/A,,Mostly Cloudy,190,2013-08-07 12:54:00
9:12 AM,73.4,68.0,83,30.11,10.0,South,5.8,-,N/A,,Mostly Cloudy,180,2013-08-07 13:12:00
9:54 AM,75.0,68.0,79,30.08,10.0,South,11.5,17.3,N/A,,Mostly Cloudy,190,2013-08-07 13:54:00
10:27 AM,77.0,68.0,74,30.10,10.0,SSW,10.4,-,N/A,,Mostly Cloudy,210,2013-08-07 14:27:00
10:48 AM,78.8,69.8,74,30.11,10.0,South,12.7,-,N/A,,Mostly Cloudy,180,2013-08-07 14:48:00
10:54 AM,78.1,69.1,74,30.08,10.0,South,9.2,-,N/A,,Mostly Cloudy,180,2013-08-07 14:54:00
11:13 AM,78.8,69.8,74,30.11,10.0,South,11.5,-,N/A,,Mostly Cloudy,180,2013-08-07 15:13:00
11:54 AM,78.1,69.1,74,30.09,10.0,SSW,9.2,-,N/A,,Mostly Cloudy,200,2013-08-07 15:54:00
12:16 PM,78.8,68.0,69,30.12,10.0,SSW,13.8,-,N/A,,Overcast,200,2013-08-07 16:16:00
12:54 PM,80.1,68.0,67,30.08,10.0,South,11.5,-,N/A,,Mostly Cloudy,180,2013-08-07 16:54:00
1:54 PM,82.0,69.1,65,30.05,10.0,South,11.5,-,N/A,,Mostly Cloudy,170,2013-08-07 17:54:00
2:54 PM,81.0,66.9,62,30.05,10.0,SSW,10.4,-,N/A,,Mostly Cloudy,210,2013-08-07 18:54:00
3:54 PM,82.0,64.9,56,30.04,10.0,South,11.5,-,N/A,,Mostly Cloudy,180,2013-08-07 19:54:00
4:54 PM,81.0,60.1,49,30.03,10.0,South,12.7,-,N/A,,Mostly Cloudy,190,2013-08-07 20:54:00
5:54 PM,80.1,64.0,58,30.03,10.0,South,8.1,-,N/A,,Mostly Cloudy,190,2013-08-07 21:54:00
6:54 PM,79.0,64.0,60,30.02,10.0,South,6.9,-,N/A,,Mostly Cloudy,180,2013-08-07 22:54:00
7:54 PM,78.1,66.0,66,30.03,10.0,SSW,4.6,-,N/A,,Mostly Cloudy,200,2013-08-07 23:54:00
8:54 PM,77.0,66.9,71,30.03,10.0,South,5.8,-,N/A,,Mostly Cloudy,170,2013-08-08 00:54:00
9:54 PM,75.0,68.0,79,30.04,10.0,SSE,5.8,-,N/A,,Mostly Cloudy,160,2013-08-08 01:54:00
10:54 PM,75.0,68.0,79,30.04,10.0,South,4.6,-,N/A,,Mostly Cloudy,170,2013-08-08 02:54:00
11:54 PM,75.0,66.9,76,30.04,10.0,South,4.6,-,N/A,,Mostly Cloudy,180,2013-08-08 03:54:00